< < Back
Terminal Aerodrome Forecast


Current Version              Previous Versions:   1  2  3  4  5  6  7  8  9  

Terminal Aerodrome Forecast

570
FTUS42 KJAX 020500
TAFSSI
TAF
KSSI 020540Z 0206/0306 23005KT P6SM FEW050 BKN250
     FM021500 16006KT P6SM VCTS SCT030CB SCT250
     FM021900 13010KT P6SM FEW040 BKN250=

Latest METAR

684
SAUS70 KWBC 020900 RRD
MTRSSI
METAR KSSI 020853Z AUTO 17005KT 10SM CLR 27/24 A3003 RMK AO2 SLP168
T02670239 56021


USA.gov is the U.S. government's official web portal to all federal, state and local government web resources and services.